.
WxDataArchive / Data Records for 2014-01-26
2014-01-25 January 2014 2014-01-27

Data Records for Sunday, 26 January 2014

Time	Temp	Chill	HIndex	Humid	Dewpt	 Wind 	HiWind	WindDir	Rain 	Barom 
-----	----	-----	------	-----	-----	------	------	-------	-----	----- 
00:00	7.4	7.4	7.4	57	-4.6	0	3	270	0.00	29.864 
00:05	7.2	7.2	7.2	57	-4.8	1	3	270	0.00	29.864 
00:10	7.2	7.2	7.2	58	-4.4	0	2	270	0.00	29.864 
00:15	7.0	7.0	7.0	58	-4.6	1	3	270	0.00	29.867 
00:20	7.0	7.0	7.0	58	-4.6	0	2	270	0.00	29.867 
00:25	6.9	6.9	6.9	58	-4.7	0	3	248	0.00	29.867 
00:30	6.9	6.9	6.9	59	-4.4	1	2	248	0.00	29.863 
00:35	6.7	6.7	6.7	59	-4.5	0	1	248	0.00	29.863 
00:40	6.7	6.7	6.7	59	-4.5	0	2	248	0.00	29.863 
00:45	6.5	6.5	6.5	60	-4.4	0	2	248	0.00	29.847 
00:50	6.5	6.5	6.5	60	-4.4	0	2	248	0.00	29.847 
00:55	6.3	6.3	6.3	60	-4.6	0	1	248	0.00	29.847 
01:00	6.3	6.3	6.3	61	-4.2	1	3	248	0.00	29.852 
01:05	6.3	6.3	6.3	61	-4.2	0	2	248	0.00	29.852 
01:10	6.1	6.1	6.1	61	-4.4	0	2	248	0.00	29.852 
01:15	6.1	6.1	6.1	61	-4.4	0	3	248	0.00	29.859 
01:20	6.1	6.1	6.1	61	-4.4	0	2	248	0.00	29.859 
01:25	6.0	6.0	6.0	62	-4.2	0	2	248	0.00	29.859 
01:30	5.8	5.8	5.8	62	-4.4	0	1	248	0.00	29.846 
01:35	5.8	5.8	5.8	62	-4.4	0	2	248	0.00	29.846 
01:40	5.6	5.6	5.6	63	-4.2	0	1	248	0.00	29.846 
01:45	5.6	5.6	5.6	63	-4.2	0	1	248	0.00	29.844 
01:50	5.6	5.6	5.6	63	-4.2	0	1	248	0.00	29.844 
01:55	5.6	5.6	5.6	63	-4.2	0	2	248	0.00	29.844 
02:00	5.6	5.6	5.6	63	-4.2	0	2	248	0.00	29.841 
02:05	5.6	5.6	5.6	64	-3.9	0	1	248	0.00	29.841 
02:10	5.6	5.6	5.6	64	-3.9	0	2	248	0.00	29.841 
02:15	5.6	5.6	5.6	64	-3.9	0	1	248	0.00	29.839 
02:20	5.6	5.6	5.6	64	-3.9	0	2	248	0.00	29.839 
02:25	5.4	5.4	5.4	64	-4.1	0	2	248	0.00	29.839 
02:30	5.4	5.4	5.4	65	-3.8	0	2	248	0.00	29.838 
02:35	5.4	5.4	5.4	65	-3.8	0	2	248	0.00	29.838 
02:40	5.4	5.4	5.4	65	-3.8	0	3	248	0.00	29.838 
02:45	5.2	5.2	5.2	65	-4.0	1	3	248	0.00	29.851 
02:50	5.2	5.2	5.2	65	-4.0	0	4	225	0.00	29.851 
02:55	5.0	5.0	5.0	65	-4.2	0	3	225	0.00	29.851 
03:00	5.0	5.0	5.0	65	-4.2	0	2	225	0.00	29.835 
03:05	4.8	4.8	4.8	65	-4.3	0	2	225	0.00	29.835 
03:10	4.8	4.8	4.8	66	-4.0	0	2	225	0.00	29.835 
03:15	4.8	4.8	4.8	66	-4.0	0	2	225	0.00	29.819 
03:20	4.8	4.8	4.8	66	-4.0	0	2	225	0.00	29.819 
03:25	4.8	4.8	4.8	66	-4.0	0	1	225	0.00	29.819 
03:30	4.8	4.8	4.8	66	-4.0	0	1	225	0.00	29.821 
03:35	4.8	4.8	4.8	67	-3.7	0	0	---	0.00	29.821 
03:40	5.0	5.0	5.0	67	-3.5	0	1	225	0.00	29.821 
03:45	5.0	5.0	5.0	67	-3.5	0	1	225	0.00	29.799 
03:50	5.0	5.0	5.0	67	-3.5	0	1	225	0.00	29.799 
03:55	5.0	5.0	5.0	67	-3.5	0	2	225	0.00	29.799 
04:00	5.0	5.0	5.0	67	-3.5	0	2	225	0.00	29.798 
04:05	5.0	5.0	5.0	67	-3.5	0	1	225	0.00	29.798 
04:10	5.0	5.0	5.0	67	-3.5	0	4	68	0.00	29.798 
04:15	5.0	5.0	5.0	67	-3.5	0	2	68	0.00	29.789 
04:20	5.0	5.0	5.0	67	-3.5	0	1	68	0.00	29.789 
04:25	5.0	5.0	5.0	67	-3.5	0	2	68	0.00	29.789 
04:30	5.0	5.0	5.0	67	-3.5	0	2	68	0.00	29.782 
04:35	5.0	5.0	5.0	67	-3.5	0	1	68	0.00	29.782 
04:40	5.2	5.2	5.2	67	-3.3	1	3	248	0.00	29.782 
04:45	5.2	5.2	5.2	66	-3.6	0	3	248	0.00	29.782 
04:50	5.4	5.4	5.4	66	-3.5	0	2	248	0.00	29.782 
04:55	5.4	5.4	5.4	66	-3.5	0	2	248	0.00	29.782 
05:00	5.6	5.6	5.6	66	-3.3	0	1	248	0.00	29.774 
05:05	5.6	5.6	5.6	66	-3.3	0	1	248	0.00	29.774 
05:10	5.8	5.8	5.8	65	-3.4	0	2	248	0.00	29.774 
05:15	5.8	5.8	5.8	65	-3.4	0	2	248	0.00	29.791 
05:20	6.0	6.0	6.0	65	-3.2	0	1	248	0.00	29.791 
05:25	6.0	6.0	6.0	65	-3.2	0	2	248	0.00	29.791 
05:30	6.0	6.0	6.0	65	-3.2	0	1	248	0.00	29.769 
05:35	6.1	6.1	6.1	65	-3.1	0	1	248	0.00	29.769 
05:40	6.1	6.1	6.1	65	-3.1	0	3	112	0.00	29.769 
05:45	6.3	6.3	6.3	64	-3.2	0	1	112	0.00	29.774 
05:50	6.3	6.3	6.3	65	-2.9	0	2	112	0.00	29.774 
05:55	6.3	6.3	6.3	64	-3.2	0	2	112	0.00	29.774 
06:00	6.3	6.3	6.3	64	-3.2	0	1	112	0.00	29.771 
06:05	6.5	6.5	6.5	64	-3.0	0	1	112	0.00	29.771 
06:10	6.5	6.5	6.5	65	-2.7	0	1	112	0.00	29.771 
06:15	6.5	6.5	6.5	66	-2.4	0	2	112	0.00	29.757 
06:20	6.5	6.5	6.5	68	-1.8	0	2	112	0.00	29.757 
06:25	6.3	6.3	6.3	69	-1.7	0	2	112	0.00	29.757 
06:30	6.3	6.3	6.3	70	-1.4	0	1	112	0.00	29.751 
06:35	6.3	6.3	6.3	71	-1.1	0	2	112	0.00	29.751 
06:40	6.1	6.1	6.1	73	-0.7	1	3	112	0.00	29.751 
06:45	6.1	6.1	6.1	73	-0.7	0	3	90	0.00	29.735 
06:50	6.0	6.0	6.0	75	-0.2	1	3	90	0.00	29.735 
06:55	6.0	6.0	6.0	76	0.1	0	2	90	0.00	29.735 
07:00	6.0	6.0	6.0	77	0.4	0	2	90	0.00	29.722 
07:05	6.0	6.0	6.0	77	0.4	0	2	90	0.00	29.722 
07:10	6.0	6.0	6.0	78	0.6	0	2	90	0.00	29.722 
07:15	6.0	6.0	6.0	78	0.6	0	2	112	0.00	29.712 
07:20	6.1	6.1	6.1	78	0.7	1	4	112	0.00	29.712 
07:25	6.1	6.1	6.1	79	1.0	1	3	112	0.00	29.712 
07:30	6.1	6.1	6.1	79	1.0	1	3	112	0.00	29.700 
07:35	6.1	6.1	6.1	79	1.0	0	4	90	0.00	29.700 
07:40	6.3	6.3	6.3	79	1.2	1	4	90	0.00	29.700 
07:45	6.3	6.3	6.3	80	1.5	1	4	112	0.00	29.689 
07:50	6.3	6.3	6.3	80	1.5	0	3	112	0.00	29.689 
07:55	6.3	6.3	6.3	80	1.5	0	3	112	0.00	29.689 
08:00	6.5	6.5	6.5	80	1.7	0	2	112	0.00	29.674 
08:05	6.5	6.5	6.5	80	1.7	0	2	112	0.00	29.674 
08:10	6.7	6.7	6.7	81	2.1	1	3	112	0.00	29.674 
08:15	6.7	6.7	6.7	81	2.1	1	4	112	0.00	29.670 
08:20	6.9	6.9	6.9	81	2.3	1	4	90	0.00	29.670 
08:25	7.0	7.0	7.0	81	2.4	1	4	112	0.00	29.670 
08:30	7.0	7.0	7.0	81	2.4	1	3	112	0.00	29.656 
08:35	7.2	7.2	7.2	81	2.6	1	4	112	0.00	29.656 
08:40	7.4	7.4	7.4	81	2.8	1	3	112	0.00	29.656 
08:45	7.6	7.6	7.6	81	3.0	1	4	112	0.00	29.659 
08:50	7.7	7.7	7.7	81	3.1	1	4	90	0.00	29.659 
08:55	7.9	7.9	7.9	81	3.3	1	3	90	0.00	29.659 
09:00	8.1	8.1	8.1	81	3.5	1	3	135	0.00	29.659 
09:05	8.3	8.3	8.3	81	3.7	1	3	112	0.00	29.659 
09:10	8.4	8.4	8.4	81	3.8	1	3	112	0.00	29.659 
09:15	8.8	8.8	8.8	81	4.2	1	4	90	0.00	29.658 
09:20	9.0	9.0	9.0	81	4.4	2	6	90	0.00	29.658 
09:25	9.2	9.2	9.2	81	4.6	1	5	112	0.00	29.658 
09:30	9.3	9.3	9.3	81	4.7	2	5	90	0.00	29.647 
09:35	9.7	9.7	9.7	81	5.1	1	5	112	0.00	29.647 
09:40	9.9	9.9	9.9	82	5.5	1	4	90	0.00	29.647 
09:45	10.0	10.0	10.0	82	5.6	1	4	112	0.00	29.642 
09:50	10.2	10.2	10.2	82	5.8	1	5	68	0.00	29.642 
09:55	10.4	10.4	10.4	82	6.0	1	3	68	0.00	29.642 
10:00	10.5	10.5	10.5	82	6.1	1	5	90	0.00	29.636 
10:05	10.7	10.7	10.7	82	6.3	1	7	68	0.00	29.636 
10:10	10.9	10.9	10.9	82	6.5	1	4	90	0.00	29.636 
10:15	11.1	11.1	11.1	82	6.7	1	4	112	0.00	29.628 
10:20	11.2	11.2	11.2	82	6.8	1	3	112	0.00	29.628 
10:25	11.4	11.4	11.4	82	7.0	1	5	112	0.00	29.628 
10:30	11.6	11.6	11.6	82	7.2	1	3	112	0.00	29.621 
10:35	11.7	11.7	11.7	82	7.3	1	4	112	0.00	29.621 
10:40	12.1	12.1	12.1	82	7.7	1	4	90	0.00	29.621 
10:45	12.4	12.4	12.4	82	8.0	1	4	90	0.00	29.605 
10:50	12.6	12.6	12.6	81	7.9	2	6	90	0.00	29.605 
10:55	12.9	12.9	12.9	81	8.2	2	6	90	0.00	29.605 
11:00	13.1	13.1	13.1	80	8.1	3	7	68	0.00	29.588 
11:05	13.3	13.3	13.3	80	8.3	2	6	90	0.00	29.588 
11:10	13.5	13.5	13.5	80	8.5	2	6	90	0.00	29.588 
11:15	13.8	13.8	13.8	79	8.5	2	5	90	0.00	29.573 
11:20	14.1	14.1	14.1	79	8.8	2	7	90	0.00	29.573 
11:25	14.3	14.3	14.3	78	8.7	2	7	135	0.00	29.573 
11:30	14.6	14.6	14.6	78	9.0	1	5	112	0.00	29.560 
11:35	14.9	14.9	14.9	77	9.0	2	4	112	0.00	29.560 
11:40	15.2	15.2	15.2	77	9.3	1	5	112	0.00	29.560 
11:45	15.6	15.6	15.6	76	9.4	1	4	135	0.00	29.543 
11:50	16.1	16.1	16.1	76	9.9	1	5	112	0.00	29.543 
11:55	16.4	16.4	16.4	75	9.9	1	6	112	0.00	29.543 
12:00	16.5	16.5	16.5	74	9.7	1	3	45	0.00	29.539 
12:05	16.9	16.9	16.9	74	10.1	1	4	112	0.00	29.539 
12:10	17.3	17.3	17.3	74	10.5	1	2	22	0.00	29.539 
12:15	17.8	17.8	17.8	74	10.9	0	2	292	0.00	29.510 
12:20	18.3	18.3	18.3	73	11.1	1	3	292	0.00	29.510 
12:25	18.8	18.8	18.8	72	11.3	1	3	292	0.00	29.510 
12:30	18.9	18.9	18.9	70	10.8	2	7	292	0.00	29.524 
12:35	18.9	18.9	18.9	70	10.8	1	4	45	0.00	29.524 
12:40	19.1	19.1	19.1	70	11.0	1	5	270	0.00	29.524 
12:45	19.5	19.5	19.5	70	11.3	0	2	270	0.00	29.500 
12:50	20.0	20.0	20.0	69	11.5	0	3	270	0.00	29.500 
12:55	20.5	20.5	20.5	69	12.0	1	4	270	0.00	29.500 
13:00	20.5	20.5	20.5	68	11.6	1	4	90	0.00	29.490 
13:05	20.6	20.6	20.6	68	11.7	0	2	338	0.00	29.490 
13:10	21.1	21.1	21.1	67	11.9	1	4	248	0.00	29.490 
13:15	21.4	21.4	21.4	67	12.2	0	3	248	0.00	29.489 
13:20	21.9	21.9	21.9	67	12.7	0	3	248	0.00	29.489 
13:25	22.4	22.4	22.4	66	12.8	0	3	248	0.00	29.489 
13:30	23.0	23.0	23.0	66	13.4	0	3	248	0.00	29.476 
13:35	23.6	23.6	23.6	67	14.3	2	6	270	0.00	29.476 
13:40	24.1	24.1	24.1	67	14.8	1	5	248	0.00	29.476 
13:45	24.8	24.8	24.8	68	15.8	2	6	270	0.00	29.461 
13:50	25.6	25.6	25.6	67	16.2	1	4	248	0.00	29.461 
13:55	26.1	26.1	26.1	67	16.7	1	4	248	0.00	29.461 
14:00	26.7	26.7	26.7	66	16.9	1	5	270	0.00	29.457 
14:05	27.0	27.0	27.0	66	17.2	1	4	248	0.00	29.457 
14:10	27.5	27.5	27.5	66	17.7	0	4	248	0.00	29.457 
14:15	27.8	27.8	27.8	65	17.6	1	5	248	0.00	29.451 
14:20	28.1	28.1	28.1	66	18.2	1	3	248	0.00	29.451 
14:25	28.4	28.4	28.4	66	18.5	1	5	248	0.00	29.451 
14:30	28.7	28.7	28.7	66	18.8	1	4	248	0.00	29.437 
14:35	29.0	29.0	29.0	67	19.4	2	6	248	0.00	29.437 
14:40	29.5	29.5	29.5	68	20.3	3	7	248	0.00	29.437 
14:45	30.1	30.1	30.1	69	21.2	3	7	270	0.00	29.433 
14:50	30.6	26.5	30.6	71	22.3	4	11	248	0.00	29.433 
14:55	30.9	30.9	30.9	72	23.0	3	7	248	0.00	29.433 
15:00	31.2	31.2	31.2	73	23.6	3	12	248	0.00	29.434 
15:05	31.5	31.5	31.5	73	23.9	3	10	248	0.00	29.434 
15:10	31.6	27.6	31.6	74	24.3	4	7	270	0.00	29.434 
15:15	31.8	27.8	31.8	74	24.5	4	11	270	0.00	29.439 
15:20	31.8	27.8	31.8	75	24.8	4	8	270	0.00	29.439 
15:25	31.8	31.8	31.8	75	24.8	3	7	292	0.00	29.439 
15:30	31.9	31.9	31.9	75	24.9	3	10	270	0.00	29.439 
15:35	31.9	31.9	31.9	75	24.9	3	10	248	0.00	29.439 
15:40	32.1	32.1	32.1	75	25.1	2	7	270	0.00	29.439 
15:45	32.2	32.2	32.2	75	25.2	2	7	248	0.00	29.446 
15:50	32.2	32.2	32.2	76	25.5	2	7	248	0.00	29.446 
15:55	32.4	32.4	32.4	76	25.7	3	6	270	0.00	29.446 
16:00	32.5	32.5	32.5	76	25.8	3	7	248	0.00	29.456 
16:05	32.5	27.7	32.5	76	25.8	5	11	270	0.00	29.456 
16:10	32.5	27.7	32.5	75	25.5	5	9	270	0.00	29.456 
16:15	32.5	27.7	32.5	75	25.5	5	17	270	0.00	29.463 
16:20	32.4	27.5	32.4	75	25.4	5	11	270	0.00	29.463 
16:25	32.2	27.3	32.2	75	25.2	5	14	270	0.00	29.463 
16:30	31.9	27.0	31.9	76	25.2	5	12	248	0.00	29.478 
16:35	31.6	26.6	31.6	75	24.6	5	14	270	0.00	29.478 
16:40	31.3	31.3	31.3	75	24.3	3	9	270	0.00	29.478 
16:45	31.2	26.1	31.2	75	24.2	5	11	270	0.00	29.490 
16:50	31.0	26.9	31.0	75	24.0	4	11	248	0.00	29.490 
16:55	31.0	25.9	31.0	75	24.0	5	11	248	0.00	29.490 
17:00	30.9	30.9	30.9	75	23.9	3	11	248	0.00	29.500 
17:05	30.7	25.5	30.7	75	23.7	5	11	270	0.00	29.500 
17:10	30.6	26.5	30.6	75	23.6	4	7	248	0.00	29.500 
17:15	30.4	26.2	30.4	75	23.4	4	9	248	0.00	29.512 
17:20	30.3	26.1	30.3	75	23.3	4	7	248	0.00	29.512 
17:25	30.3	26.1	30.3	75	23.3	4	11	270	0.00	29.512 
17:30	30.3	26.1	30.3	74	23.0	4	10	270	0.00	29.519 
17:35	30.3	26.1	30.3	73	22.7	4	10	248	0.00	29.519 
17:40	30.1	25.9	30.1	73	22.5	4	8	270	0.00	29.519 
17:45	30.0	25.8	30.0	73	22.4	4	7	248	0.00	29.524 
17:50	30.0	25.8	30.0	73	22.4	4	9	248	0.00	29.524 
17:55	30.0	30.0	30.0	73	22.4	3	10	248	0.00	29.524 
18:00	29.8	29.8	29.8	73	22.2	3	9	248	0.00	29.528 
18:05	29.7	29.7	29.7	73	22.1	3	7	248	0.00	29.528 
18:10	29.7	29.7	29.7	74	22.4	3	5	270	0.00	29.528 
18:15	29.7	29.7	29.7	74	22.4	2	7	248	0.00	29.532 
18:20	29.5	29.5	29.5	74	22.3	2	5	248	0.00	29.532 
18:25	29.5	29.5	29.5	75	22.6	3	5	248	0.00	29.532 
18:30	29.4	29.4	29.4	75	22.5	2	5	248	0.00	29.544 
18:35	29.4	29.4	29.4	75	22.5	2	5	248	0.00	29.544 
18:40	29.4	29.4	29.4	76	22.8	3	6	248	0.00	29.544 
18:45	29.4	29.4	29.4	75	22.5	2	4	248	0.00	29.539 
18:50	29.5	29.5	29.5	75	22.6	2	7	248	0.00	29.539 
18:55	29.5	29.5	29.5	75	22.6	1	4	248	0.00	29.539 
19:00	29.5	29.5	29.5	74	22.3	2	5	248	0.00	29.542 
19:05	29.5	29.5	29.5	74	22.3	1	3	248	0.00	29.542 
19:10	29.4	29.4	29.4	75	22.5	1	4	270	0.00	29.542 
19:15	29.4	29.4	29.4	74	22.2	1	3	248	0.00	29.544 
19:20	29.4	29.4	29.4	75	22.5	1	3	248	0.00	29.544 
19:25	29.4	29.4	29.4	75	22.5	1	3	248	0.00	29.544 
19:30	29.5	29.5	29.5	75	22.6	0	2	248	0.00	29.544 
19:35	29.5	29.5	29.5	75	22.6	1	6	248	0.00	29.544 
19:40	29.7	29.7	29.7	75	22.8	1	4	248	0.00	29.544 
19:45	29.7	29.7	29.7	75	22.8	1	3	248	0.00	29.545 
19:50	29.8	29.8	29.8	75	22.9	0	3	248	0.00	29.545 
19:55	29.8	29.8	29.8	75	22.9	1	3	248	0.00	29.545 
20:00	29.8	29.8	29.8	75	22.9	0	3	248	0.00	29.535 
20:05	30.0	30.0	30.0	75	23.1	1	4	248	0.00	29.535 
20:10	30.1	30.1	30.1	75	23.2	0	2	248	0.00	29.535 
20:15	30.1	30.1	30.1	76	23.5	0	3	248	0.00	29.517 
20:20	30.1	30.1	30.1	76	23.5	1	3	248	0.00	29.517 
20:25	30.4	30.4	30.4	77	24.1	0	3	248	0.00	29.517 
20:30	30.6	30.6	30.6	77	24.3	0	5	248	0.00	29.515 
20:35	30.7	30.7	30.7	78	24.7	0	3	248	0.00	29.515 
20:40	30.7	30.7	30.7	78	24.7	0	3	248	0.00	29.515 
20:45	30.9	30.9	30.9	78	24.9	0	3	248	0.00	29.496 
20:50	30.9	30.9	30.9	79	25.2	0	2	248	0.00	29.496 
20:55	30.9	30.9	30.9	79	25.2	0	3	248	0.00	29.496 
21:00	30.7	30.7	30.7	79	25.0	0	1	248	0.00	29.487 
21:05	30.6	30.6	30.6	79	24.9	0	0	---	0.00	29.487 
21:10	30.4	30.4	30.4	80	25.0	0	0	---	0.00	29.487 
21:15	30.4	30.4	30.4	80	25.0	0	0	---	0.00	29.479 
21:20	30.3	30.3	30.3	80	24.9	0	1	248	0.00	29.479 
21:25	30.3	30.3	30.3	81	25.2	0	0	---	0.00	29.479 
21:30	30.3	30.3	30.3	81	25.2	0	0	---	0.00	29.477 
21:35	30.3	30.3	30.3	81	25.2	0	0	---	0.00	29.477 
21:40	30.3	30.3	30.3	81	25.2	0	0	---	0.00	29.477 
21:45	30.3	30.3	30.3	81	25.2	0	0	---	0.00	29.472 
21:50	30.3	30.3	30.3	82	25.5	0	0	---	0.00	29.472 
21:55	30.1	30.1	30.1	82	25.3	0	1	248	0.00	29.472 
22:00	30.1	30.1	30.1	82	25.3	0	0	---	0.00	29.471 
22:05	30.1	30.1	30.1	82	25.3	0	0	---	0.00	29.471 
22:10	30.1	30.1	30.1	82	25.3	0	1	248	0.00	29.471 
22:15	30.1	30.1	30.1	82	25.3	0	2	248	0.00	29.470 
22:20	30.1	30.1	30.1	83	25.6	0	1	248	0.00	29.470 
22:25	30.0	30.0	30.0	83	25.5	1	3	248	0.00	29.470 
22:30	30.0	30.0	30.0	83	25.5	2	5	315	0.00	29.474 
22:35	30.1	30.1	30.1	84	25.9	2	4	270	0.00	29.474 
22:40	30.4	30.4	30.4	84	26.2	2	6	315	0.00	29.474 
22:45	30.6	30.6	30.6	84	26.4	3	7	315	0.00	29.463 
22:50	30.7	30.7	30.7	83	26.2	3	10	270	0.00	29.463 
22:55	30.6	30.6	30.6	83	26.1	3	7	270	0.00	29.463 
23:00	30.6	30.6	30.6	82	25.8	3	7	270	0.00	29.503 
23:05	30.3	24.2	30.3	81	25.2	6	13	270	0.00	29.503 
23:10	30.1	25.9	30.1	79	24.4	4	7	270	0.00	29.503 
23:15	30.1	24.8	30.1	77	23.8	5	12	292	0.00	29.516 
23:20	29.5	22.5	29.5	74	22.3	7	16	292	0.00	29.516 
23:25	27.3	18.5	27.3	76	20.8	9	20	292	0.00	29.516 
23:30	26.4	19.6	26.4	75	19.6	6	16	270	0.00	29.547 
23:35	25.6	17.1	25.6	74	18.5	8	17	270	0.00	29.547 
23:40	25.1	19.0	25.1	74	18.0	5	13	270	0.00	29.547 
23:45	24.8	17.7	24.8	74	17.7	6	12	270	0.00	29.571 
23:50	24.5	17.3	24.5	75	17.7	6	11	270	0.00	29.571 
23:55	24.2	16.9	24.2	76	17.7	6	14	270	0.00	29.571 

CoCoRaHS
IN-AL-39
A2 Web Hosting
Creative Commons License
GoDaddy
search engine by freefind advanced

loaded 2018-11-19 18:47:47 • last modified 2010-11-18 10:43:29
Privacy PolicyDisclaimer
• wx.awcolley.com is powered by PmWiki v.2002016 •
• all content (unless otherwise noted) © 2018 A W Colley